NCAR-RAP Real-Time Weather Data

Output produced by METARs form (14 October 2019  23:17 UTC)
found at http://weather.rap.ucar.edu/surface/
 
RJTT 142300Z 07010KT 9999 FEW010 SCT016 BKN030 19/17 Q1021 NOSIG RMK 1ST010 3CU016 6SC030 A3016
 
RJAA 142300Z 05005KT 9999 -RA FEW020 SCT050 BKN070 18/16 Q1021 NOSIG RMK 1CU020 3SC050 7SC070 A3015
 
 
RJAH 142300Z 06006KT 9999 FEW020 BKN050 17/16 Q1020
 
RJGG 142300Z 34019KT 9999 FEW025 20/11 Q1020 NOSIG
 
RJNK 142300Z 04015KT 9999 FEW020 BKN040 BKN060 16/10 Q1025
 
RJNT 142300Z VRB02KT 9999 -SHRA FEW003 SCT015 BKN030 15/14 Q1025
 
RJNW 142300Z 02006KT 310V090 9999 FEW020 14/08 Q1025
 
 
 
RJTC 142115Z 00000KT 9999 FEW010 BKN050 16/15 Q1020 RMK 2ST010 7SC050 A3012
 
 
 
 
 
RJTL 141920Z 06003KT 030V100 9999 -RA FEW005 SCT008 BKN030 16/16 Q1018 RMK 1ST005 4ST008 7SC030 A3007
 
RJTO 142300Z 07011KT 9999 FEW015 BKN020 BKN040 19/16 Q1020
 
RJTR 142237Z AUTO 00000KT 9SM OVC008 17/16 A3014 RMK AO2 RAB23E32 SLP208 $
 
RJTT 142300Z 07010KT 9999 FEW010 SCT016 BKN030 19/17 Q1021 NOSIG RMK 1ST010 3CU016 6SC030 A3016
 
RJTU 142145Z VRB02KT 8000 FEW005 BKN050 BKN070 17/15 Q1020 RMK 1ST005 5SC050 5AC070 A3014
 
RJTY 142256Z AUTO 00000KT 10SM OVC065 17/16 A3020 RMK AO2 SLP229 T01710163 FZRANO $